Time;durP1;ratioP1;P1;durP2;ratioP2;P2;SDS_P1;SDS_P2;PMS_P1;PMS_P2;Temp;Humidity;BMP_temperature;BMP_pressure;BME280_temperature;BME280_humidity;BME280_pressure;Samples;Min_cycle;Max_cycle;Signal;HPM_P1;HPM_P2
2023/04/30 00:02:12;;;;;;;6.80;1.95;;;;;;;9.73;55.48;101753.81;5045098;28;20046;-36
2023/04/30 00:04:37;;;;;;;6.38;1.63;;;;;;;9.79;55.37;101748.34;5062707;28;20107;-36
2023/04/30 00:07:03;;;;;;;9.80;1.98;;;;;;;9.73;55.54;101749.41;5048005;28;20414;-36
2023/04/30 00:09:29;;;;;;;6.28;1.80;;;;;;;9.71;55.48;101761.75;5050740;28;20050;-36
2023/04/30 00:11:54;;;;;;;13.20;2.00;;;;;;;9.69;55.78;101760.09;5051329;28;20479;-36
2023/04/30 00:14:20;;;;;;;9.18;2.20;;;;;;;9.56;55.96;101763.19;5059461;28;20093;-35
2023/04/30 00:16:45;;;;;;;4.47;1.40;;;;;;;9.61;55.66;101756.00;5052761;28;20061;-36
2023/04/30 00:19:11;;;;;;;5.50;1.90;;;;;;;9.48;55.93;101764.38;5049059;28;20059;-35
2023/04/30 00:21:36;;;;;;;4.55;1.50;;;;;;;9.46;55.83;101757.41;5053820;28;20067;-35
2023/04/30 00:24:02;;;;;;;7.20;1.75;;;;;;;9.54;55.82;101769.41;5048774;28;20890;-36
2023/04/30 00:26:28;;;;;;;5.30;1.85;;;;;;;9.48;56.15;101773.13;5050561;28;20055;-36
2023/04/30 00:28:53;;;;;;;10.68;2.13;;;;;;;9.49;55.84;101771.34;5052895;28;20060;-36
2023/04/30 00:31:19;;;;;;;5.97;1.77;;;;;;;9.48;55.66;101774.88;5044351;28;20511;-36
2023/04/30 00:33:44;;;;;;;5.43;2.33;;;;;;;9.51;55.71;101765.13;5055749;28;20070;-35
2023/04/30 00:36:10;;;;;;;6.45;1.80;;;;;;;9.56;55.71;101773.69;5045767;28;20074;-36
2023/04/30 00:38:35;;;;;;;12.75;1.80;;;;;;;9.65;55.33;101777.75;5055186;28;20115;-36
2023/04/30 00:41:01;;;;;;;9.25;1.75;;;;;;;9.71;55.26;101776.66;5053348;28;20053;-36
2023/04/30 00:43:26;;;;;;;12.95;1.73;;;;;;;9.67;55.20;101773.28;5055073;28;20155;-36
2023/04/30 00:45:52;;;;;;;8.68;2.47;;;;;;;9.64;55.17;101773.41;5052094;28;20073;-36
2023/04/30 00:48:18;;;;;;;4.97;1.60;;;;;;;9.57;55.30;101774.56;5056608;28;20055;-36
2023/04/30 00:50:44;;;;;;;3.95;1.65;;;;;;;9.53;55.51;101778.22;5048914;28;20075;-36
2023/04/30 00:53:12;;;;;;;5.82;1.83;;;;;;;9.57;55.49;101779.81;5052676;28;20971;-36
2023/04/30 00:55:40;;;;;;;9.50;1.75;;;;;;;9.62;55.41;101783.09;5052327;28;20053;-37
2023/04/30 00:58:07;;;;;;;8.70;1.92;;;;;;;9.53;55.53;101781.69;5055811;28;20056;-35
2023/04/30 01:00:33;;;;;;;15.88;2.10;;;;;;;9.47;55.71;101784.56;5054372;28;20058;-36
2023/04/30 01:02:59;;;;;;;9.57;2.72;;;;;;;9.44;55.65;101788.16;5049449;28;20073;-36
2023/04/30 01:05:24;;;;;;;7.03;1.73;;;;;;;9.49;55.66;101792.38;5058669;28;20055;-35
2023/04/30 01:07:51;;;;;;;5.13;1.80;;;;;;;9.38;55.99;101792.75;5048557;28;20061;-35
2023/04/30 01:10:20;;;;;;;9.82;2.38;;;;;;;9.33;56.15;101792.91;5053813;28;20051;-35
2023/04/30 01:12:48;;;;;;;3.17;1.58;;;;;;;9.18;56.26;101790.81;5050349;28;20090;-36
2023/04/30 01:15:38;;;;;;;8.52;2.30;;;;;;;9.13;56.47;101789.25;5057663;28;20090;-35
2023/04/30 01:18:18;;;;;;;13.02;1.85;;;;;;;9.19;56.26;101797.78;5052461;28;20176;-36
2023/04/30 01:20:51;;;;;;;9.57;2.17;;;;;;;9.24;56.05;101795.88;5056041;28;20135;-36
2023/04/30 01:23:41;;;;;;;6.75;1.90;;;;;;;9.29;56.09;101801.84;5056405;28;22262;-36
2023/04/30 01:26:11;;;;;;;8.13;1.90;;;;;;;9.22;56.25;101810.81;5052951;28;20115;-36
2023/04/30 01:28:37;;;;;;;5.75;1.83;;;;;;;9.14;56.26;101804.09;5062390;28;20067;-36
2023/04/30 01:31:02;;;;;;;4.32;2.00;;;;;;;9.08;56.24;101801.66;5057892;28;20058;-35
2023/04/30 01:33:28;;;;;;;7.57;1.75;;;;;;;8.91;56.65;101801.38;5059960;28;20488;-36
2023/04/30 01:36:14;;;;;;;6.28;1.65;;;;;;;8.93;56.85;101800.41;5051012;28;20507;-36
2023/04/30 01:38:55;;;;;;;6.50;1.60;;;;;;;8.94;56.79;101801.28;5055399;28;20370;-36
2023/04/30 01:41:33;;;;;;;4.53;1.90;;;;;;;8.92;56.98;101803.09;5053203;28;20061;-35
2023/04/30 01:44:17;;;;;;;8.57;1.75;;;;;;;9.00;57.21;101811.56;5052868;28;20098;-36
2023/04/30 01:46:52;;;;;;;4.38;1.70;;;;;;;9.01;56.59;101810.66;5053122;28;20060;-36
2023/04/30 01:49:35;;;;;;;9.90;2.35;;;;;;;9.03;56.52;101810.63;5071394;28;20073;-36
2023/04/30 01:52:41;;;;;;;6.20;2.20;;;;;;;8.97;57.06;101815.16;5064072;28;20637;-36
2023/04/30 01:55:10;;;;;;;14.65;2.80;;;;;;;8.92;56.55;101826.72;5045457;28;21399;-36
2023/04/30 01:57:58;;;;;;;5.22;1.77;;;;;;;8.96;56.77;101818.69;5056139;28;20081;-36
2023/04/30 02:00:29;;;;;;;8.27;1.05;;;;;;;8.99;56.49;101820.38;5051612;28;20100;-38
2023/04/30 02:02:55;;;;;;;3.53;1.77;;;;;;;8.87;56.70;101816.38;5056991;28;20062;-38
2023/04/30 02:05:20;;;;;;;8.98;2.05;;;;;;;8.80;56.85;101822.72;5048715;28;20066;-36
2023/04/30 02:07:49;;;;;;;8.50;2.25;;;;;;;8.83;56.45;101826.13;5049700;28;20065;-38
2023/04/30 02:10:17;;;;;;;7.95;2.15;;;;;;;8.83;56.60;101826.13;5056261;28;20055;-36
2023/04/30 02:12:42;;;;;;;7.32;1.90;;;;;;;8.81;56.48;101833.19;5056809;28;20300;-36
2023/04/30 02:15:08;;;;;;;7.72;1.60;;;;;;;8.81;56.74;101835.81;5054978;28;20478;-37
2023/04/30 02:17:34;;;;;;;5.45;1.80;;;;;;;8.77;57.01;101836.81;5055528;28;20057;-36
2023/04/30 02:19:59;;;;;;;10.20;2.33;;;;;;;8.80;56.46;101849.84;5057095;28;20113;-36
2023/04/30 02:22:25;;;;;;;7.57;2.40;;;;;;;8.85;56.81;101842.66;5047824;28;20114;-35
2023/04/30 02:24:54;;;;;;;5.65;1.92;;;;;;;8.88;56.30;101860.09;5053982;28;20062;-37
2023/04/30 02:27:21;;;;;;;6.50;1.83;;;;;;;8.96;56.48;101857.22;5054559;28;20525;-36
2023/04/30 02:29:46;;;;;;;6.28;1.90;;;;;;;8.96;56.30;101857.22;5049076;28;20520;-36
2023/04/30 02:32:12;;;;;;;7.65;2.72;;;;;;;8.93;56.18;101857.31;5052787;28;20060;-36
2023/04/30 02:34:37;;;;;;;7.93;2.00;;;;;;;8.98;56.00;101852.78;5060893;28;20079;-36
2023/04/30 02:37:03;;;;;;;5.50;2.03;;;;;;;8.89;56.25;101866.19;5049665;28;20140;-36
2023/04/30 02:39:28;;;;;;;7.07;2.63;;;;;;;8.83;56.46;101862.00;5054362;28;20606;-36
2023/04/30 02:41:54;;;;;;;8.52;2.58;;;;;;;8.79;56.57;101873.50;5058985;28;20054;-36
2023/04/30 02:44:19;;;;;;;7.72;2.72;;;;;;;8.71;56.29;101873.75;5062465;28;20078;-36
2023/04/30 02:46:45;;;;;;;6.82;2.00;;;;;;;8.53;56.69;101869.94;5057267;28;20118;-36
2023/04/30 02:49:10;;;;;;;6.55;2.05;;;;;;;8.38;57.25;101879.13;5057707;28;20051;-36
2023/04/30 02:51:35;;;;;;;8.27;1.90;;;;;;;8.11;58.05;101884.25;5055400;28;20395;-36
2023/04/30 02:54:01;;;;;;;8.35;2.78;;;;;;;8.20;57.73;101883.13;5054348;28;20066;-36
2023/04/30 02:56:27;;;;;;;11.77;3.65;;;;;;;8.21;57.85;101874.38;5047621;28;20062;-37
2023/04/30 02:58:52;;;;;;;7.93;2.58;;;;;;;8.30;57.57;101881.97;5047195;28;20069;-36
2023/04/30 03:01:18;;;;;;;4.75;1.33;;;;;;;8.24;57.81;101879.53;5051754;28;20063;-37
2023/04/30 03:03:43;;;;;;;8.55;2.92;;;;;;;8.27;57.58;101884.69;5047118;28;20478;-36
2023/04/30 03:06:09;;;;;;;10.80;2.25;;;;;;;8.34;57.06;101886.19;5045879;28;21301;-38
2023/04/30 03:08:34;;;;;;;8.20;2.25;;;;;;;8.40;57.03;101887.78;5054246;28;20582;-37
2023/04/30 03:11:00;;;;;;;10.15;3.30;;;;;;;8.44;56.54;101884.16;5050246;28;20068;-37
2023/04/30 03:13:25;;;;;;;9.95;2.28;;;;;;;8.42;57.01;101883.34;5042540;28;20071;-36
2023/04/30 03:16:03;;;;;;;8.82;2.45;;;;;;;8.41;56.93;101881.63;5053471;28;20060;-37
2023/04/30 03:18:29;;;;;;;8.32;1.92;;;;;;;8.37;57.03;101886.13;5058084;28;20078;-37
2023/04/30 03:20:55;;;;;;;7.97;1.90;;;;;;;8.36;57.01;101886.16;5074001;28;20087;-37
2023/04/30 03:23:20;;;;;;;10.25;2.70;;;;;;;8.39;56.95;101894.81;5060103;28;20088;-36
2023/04/30 03:25:46;;;;;;;5.20;2.30;;;;;;;8.41;56.99;101886.88;5049693;28;20064;-36
2023/04/30 03:28:12;;;;;;;14.02;2.78;;;;;;;8.35;57.08;101887.91;5049652;28;20050;-36
2023/04/30 03:30:37;;;;;;;6.43;2.05;;;;;;;8.26;57.23;101887.31;5057341;28;20050;-36
2023/04/30 03:33:05;;;;;;;7.72;2.30;;;;;;;8.15;57.67;101891.13;5046320;28;20614;-36
2023/04/30 03:35:31;;;;;;;6.53;1.95;;;;;;;8.00;57.93;101897.69;5054260;28;20053;-36
2023/04/30 03:37:57;;;;;;;5.60;1.92;;;;;;;7.98;57.86;101904.75;5060554;28;20045;-37
2023/04/30 03:40:22;;;;;;;3.58;1.48;;;;;;;8.01;57.89;101903.78;5042511;28;20781;-35
2023/04/30 03:42:47;;;;;;;11.15;2.22;;;;;;;8.04;57.71;101904.53;5053426;28;20083;-36
2023/04/30 03:45:13;;;;;;;7.60;2.53;;;;;;;8.08;57.71;101906.19;5050479;28;20115;-36
2023/04/30 03:47:39;;;;;;;5.65;1.90;;;;;;;8.17;57.58;101901.56;5050324;28;20456;-36
2023/04/30 03:50:04;;;;;;;6.32;1.95;;;;;;;8.14;57.74;101920.88;5054845;28;20066;-36
2023/04/30 03:52:30;;;;;;;13.18;2.88;;;;;;;8.03;57.61;101915.94;5052784;28;20148;-37
2023/04/30 03:54:56;;;;;;;8.60;3.17;;;;;;;7.95;58.26;101920.53;5059506;28;20567;-36
2023/04/30 03:57:21;;;;;;;7.90;1.90;;;;;;;7.86;58.29;101926.06;5053564;28;20112;-36
2023/04/30 03:59:47;;;;;;;9.80;2.30;;;;;;;7.66;59.05;101930.06;5056413;28;20097;-36
2023/04/30 04:02:13;;;;;;;7.97;2.55;;;;;;;7.68;58.64;101932.63;5048251;28;20562;-36
2023/04/30 04:04:39;;;;;;;13.50;2.17;;;;;;;7.63;58.83;101931.00;5048102;28;20061;-36
2023/04/30 04:07:06;;;;;;;9.23;2.50;;;;;;;7.59;58.85;101934.59;5052002;28;20145;-36
2023/04/30 04:09:32;;;;;;;5.13;2.08;;;;;;;7.56;59.26;101937.28;5043500;28;20053;-36
2023/04/30 04:11:57;;;;;;;16.92;3.30;;;;;;;7.67;58.86;101946.63;5051947;28;20961;-36
2023/04/30 04:14:23;;;;;;;7.65;2.10;;;;;;;7.76;58.75;101941.16;5055245;28;20428;-36
2023/04/30 04:16:48;;;;;;;12.13;2.75;;;;;;;7.87;58.30;101939.09;5040372;28;20795;-36
2023/04/30 04:19:14;;;;;;;8.10;2.13;;;;;;;7.90;58.67;101944.25;5051220;28;20055;-36
2023/04/30 04:21:39;;;;;;;27.17;3.30;;;;;;;7.99;58.17;101948.41;5050468;28;20083;-36
2023/04/30 04:24:07;;;;;;;5.03;2.45;;;;;;;8.07;58.17;101943.78;5053055;28;20535;-36
2023/04/30 04:26:36;;;;;;;8.70;2.00;;;;;;;8.20;57.69;101946.94;5051782;28;20072;-36
2023/04/30 04:29:04;;;;;;;6.53;2.10;;;;;;;8.27;57.84;101951.97;5064407;28;20050;-36
2023/04/30 04:31:31;;;;;;;12.68;3.03;;;;;;;8.27;57.54;101951.97;5054777;28;20057;-38
2023/04/30 04:34:03;;;;;;;8.63;2.92;;;;;;;8.30;57.45;101957.16;5065124;28;20076;-36
2023/04/30 04:36:29;;;;;;;7.68;2.30;;;;;;;8.34;57.35;101961.41;5054537;28;20048;-36
2023/04/30 04:39:00;;;;;;;13.85;2.13;;;;;;;8.40;57.53;101963.84;5046715;28;20060;-36
2023/04/30 04:41:31;;;;;;;7.30;2.47;;;;;;;8.38;57.54;101968.28;5053628;28;20061;-36
2023/04/30 04:43:57;;;;;;;10.85;2.20;;;;;;;8.34;57.76;101975.38;5059568;28;20064;-36
2023/04/30 04:46:23;;;;;;;14.10;2.60;;;;;;;8.33;58.12;101978.06;5050078;28;20085;-36
2023/04/30 04:48:49;;;;;;;12.15;2.67;;;;;;;8.30;57.92;101975.50;5045007;28;20133;-37
2023/04/30 04:51:14;;;;;;;10.95;2.80;;;;;;;8.36;58.04;101978.81;5060465;28;20441;-36
2023/04/30 04:53:40;;;;;;;6.45;2.72;;;;;;;8.36;58.28;101985.84;5049037;28;20072;-36
2023/04/30 04:56:06;;;;;;;5.65;2.38;;;;;;;8.30;58.51;101996.47;5048816;28;20074;-36
2023/04/30 04:58:32;;;;;;;8.07;3.08;;;;;;;8.35;58.00;101991.97;5047216;28;20066;-37
2023/04/30 05:00:58;;;;;;;9.90;2.92;;;;;;;8.37;57.82;101996.28;5047758;28;20847;-38
2023/04/30 05:03:27;;;;;;;12.93;3.05;;;;;;;8.34;58.28;102000.75;5045185;28;20572;-38
2023/04/30 05:05:53;;;;;;;12.25;3.20;;;;;;;8.32;58.22;102002.56;5049577;28;22813;-36
2023/04/30 05:08:19;;;;;;;11.95;2.90;;;;;;;8.22;59.08;102013.31;5056268;28;20056;-36
2023/04/30 05:10:44;;;;;;;12.93;2.67;;;;;;;8.30;58.66;102017.47;5053513;28;20042;-37
2023/04/30 05:13:10;;;;;;;8.13;2.53;;;;;;;8.35;58.59;102005.09;5051618;28;20119;-37
2023/04/30 05:15:36;;;;;;;11.70;2.75;;;;;;;8.42;58.25;102019.75;5045864;28;20042;-36
2023/04/30 05:18:01;;;;;;;10.82;3.20;;;;;;;8.49;58.00;102023.09;5047773;28;20049;-36
2023/04/30 05:20:27;;;;;;;13.27;2.45;;;;;;;8.47;58.45;102020.47;5053703;28;20524;-36
2023/04/30 05:22:52;;;;;;;10.35;3.08;;;;;;;8.55;57.85;102025.53;5054899;28;20596;-36
2023/04/30 05:25:18;;;;;;;11.05;3.80;;;;;;;8.59;57.79;102028.94;5058903;28;20486;-36
2023/04/30 05:27:43;;;;;;;16.80;3.65;;;;;;;8.59;58.15;102026.31;5050400;28;20077;-36
2023/04/30 05:30:09;;;;;;;9.25;2.70;;;;;;;8.62;57.98;102032.31;5055547;28;20051;-36
2023/04/30 05:32:35;;;;;;;12.05;2.55;;;;;;;8.64;57.98;102033.13;5057834;28;20069;-36
2023/04/30 05:35:00;;;;;;;11.38;2.45;;;;;;;8.63;58.59;102038.44;5058641;28;20070;-36
2023/04/30 05:37:26;;;;;;;3.10;2.30;;;;;;;8.63;58.19;102044.53;5056826;28;20043;-36
2023/04/30 05:39:52;;;;;;;7.70;2.92;;;;;;;8.68;58.24;102044.44;5058354;28;20141;-38
2023/04/30 05:42:19;;;;;;;9.00;3.25;;;;;;;8.75;58.11;102053.81;5058716;28;20057;-36
2023/04/30 05:44:44;;;;;;;6.40;2.25;;;;;;;8.82;57.67;102054.50;5051592;28;20061;-36
2023/04/30 05:47:09;;;;;;;6.75;2.05;;;;;;;8.89;57.32;102065.69;5045933;28;20069;-36
2023/04/30 05:49:35;;;;;;;7.90;2.60;;;;;;;8.78;57.49;102058.13;5045512;28;20050;-36
2023/04/30 05:52:02;;;;;;;10.85;2.83;;;;;;;8.69;57.84;102064.50;5051402;28;20050;-36
2023/04/30 05:54:28;;;;;;;7.35;2.85;;;;;;;8.66;58.09;102060.19;5050858;28;20045;-36
2023/04/30 05:56:54;;;;;;;12.55;2.88;;;;;;;8.70;58.03;102060.97;5051763;28;20136;-36
2023/04/30 05:59:20;;;;;;;13.63;3.50;;;;;;;8.78;57.89;102060.75;5055195;28;20146;-36
2023/04/30 06:01:46;;;;;;;9.48;2.78;;;;;;;8.80;58.07;102067.69;5035235;28;20049;-36
2023/04/30 06:04:11;;;;;;;11.75;3.65;;;;;;;8.84;57.88;102069.31;5055448;28;20474;-37
2023/04/30 06:06:37;;;;;;;12.18;2.72;;;;;;;8.94;57.63;102069.03;5057929;28;20418;-36
2023/04/30 06:09:02;;;;;;;9.05;2.40;;;;;;;8.99;57.47;102077.66;5049560;28;20880;-36
2023/04/30 06:11:29;;;;;;;8.57;3.38;;;;;;;9.06;57.28;102084.44;5051218;28;20113;-36
2023/04/30 06:13:55;;;;;;;8.10;2.38;;;;;;;9.09;57.13;102072.97;5058679;28;20076;-36
2023/04/30 06:16:20;;;;;;;9.52;2.88;;;;;;;9.18;57.05;102087.56;5048109;28;20101;-36
2023/04/30 06:18:46;;;;;;;17.33;5.53;;;;;;;9.21;56.94;102082.25;5057285;28;20051;-36
2023/04/30 06:21:11;;;;;;;9.63;2.50;;;;;;;9.25;56.56;102084.72;5058776;28;20119;-36
2023/04/30 06:23:37;;;;;;;8.38;2.65;;;;;;;9.23;56.73;102085.69;5053061;28;20066;-36
2023/04/30 06:26:02;;;;;;;12.50;3.10;;;;;;;9.25;56.29;102089.97;5047576;28;20066;-36
2023/04/30 06:28:28;;;;;;;13.25;2.75;;;;;;;9.28;56.25;102094.28;5052866;28;20168;-36
2023/04/30 06:30:54;;;;;;;8.65;2.58;;;;;;;9.26;56.04;102096.09;5052897;28;20053;-37
2023/04/30 06:33:20;;;;;;;7.72;2.28;;;;;;;9.28;55.70;102094.28;5042146;28;20201;-36
2023/04/30 06:35:46;;;;;;;10.50;3.05;;;;;;;9.26;55.81;102088.22;5056404;28;20049;-36
2023/04/30 06:38:12;;;;;;;11.90;3.28;;;;;;;9.18;55.86;102092.81;5061327;28;20130;-36
2023/04/30 06:40:38;;;;;;;9.10;2.72;;;;;;;9.09;56.16;102091.34;5064045;28;20051;-36
2023/04/30 06:43:04;;;;;;;9.50;2.95;;;;;;;9.14;56.25;102089.44;5065786;28;20073;-36
2023/04/30 06:45:30;;;;;;;6.90;3.20;;;;;;;9.23;55.90;102096.19;5059448;28;20071;-36
2023/04/30 06:47:55;;;;;;;13.10;3.30;;;;;;;9.27;55.41;102103.06;5051533;28;20710;-36
2023/04/30 06:50:20;;;;;;;11.52;2.95;;;;;;;9.28;55.64;102102.19;5055111;28;20093;-36
2023/04/30 06:52:46;;;;;;;8.45;3.30;;;;;;;9.30;55.67;102098.59;5054745;28;20066;-35
2023/04/30 06:55:12;;;;;;;15.93;3.78;;;;;;;9.38;55.37;102106.22;5049953;28;20051;-37
2023/04/30 06:57:38;;;;;;;9.32;3.47;;;;;;;9.38;55.14;102103.59;5040376;28;20052;-37
2023/04/30 07:00:05;;;;;;;13.40;3.40;;;;;;;9.41;54.93;102103.50;5024152;28;20450;-36
2023/04/30 07:02:34;;;;;;;11.68;3.10;;;;;;;9.43;55.04;102099.06;5047902;28;20068;-36
2023/04/30 07:05:00;;;;;;;7.63;2.30;;;;;;;9.36;54.62;102118.53;5036977;28;20550;-36
2023/04/30 07:07:26;;;;;;;9.00;2.92;;;;;;;9.30;54.88;102114.34;5051305;28;20072;-36
2023/04/30 07:09:52;;;;;;;15.68;2.92;;;;;;;9.39;54.60;102115.81;5032467;28;20517;-36
2023/04/30 07:12:19;;;;;;;11.27;3.60;;;;;;;9.45;54.41;102126.13;5049275;28;20084;-36
2023/04/30 07:14:44;;;;;;;13.15;5.28;;;;;;;9.44;54.15;102119.19;5048315;28;20044;-37
2023/04/30 07:17:10;;;;;;;19.52;4.47;;;;;;;9.50;54.09;102110.25;5047816;28;20095;-36
2023/04/30 07:19:36;;;;;;;12.30;3.70;;;;;;;9.61;53.88;102107.25;5040105;28;20958;-36
2023/04/30 07:22:01;;;;;;;6.00;2.25;;;;;;;9.69;53.66;102105.25;5050480;28;20044;-37
2023/04/30 07:24:27;;;;;;;8.18;2.40;;;;;;;9.79;53.63;102131.25;5047035;28;20068;-37
2023/04/30 07:26:52;;;;;;;7.07;2.40;;;;;;;9.74;53.37;102108.63;5047034;28;20919;-36
2023/04/30 07:29:19;;;;;;;11.32;2.63;;;;;;;9.70;52.37;102128.00;5050208;28;20528;-36
2023/04/30 07:31:45;;;;;;;7.53;2.45;;;;;;;9.62;52.36;102124.75;5042453;28;20050;-36
2023/04/30 07:34:12;;;;;;;4.38;1.60;;;;;;;9.65;52.32;102113.31;5037948;28;20065;-37
2023/04/30 07:36:38;;;;;;;8.57;2.13;;;;;;;9.56;52.15;102125.81;5043927;28;20063;-36
2023/04/30 07:39:04;;;;;;;6.00;2.30;;;;;;;9.59;52.39;102117.84;5038681;28;20068;-36
2023/04/30 07:41:32;;;;;;;5.45;2.38;;;;;;;9.64;52.09;102120.31;5038341;28;20058;-36
2023/04/30 07:47:41;;;;;;;6.93;2.33;;;;;;;9.52;51.92;102133.84;4229190;27;25267978;-32
2023/04/30 07:50:06;;;;;;;14.90;3.00;;;;;;;9.58;51.66;102133.66;5129602;27;21427;-32
2023/04/30 07:52:32;;;;;;;5.03;1.88;;;;;;;9.53;51.22;102125.06;5134580;27;22004;-33
2023/04/30 07:54:57;;;;;;;3.97;1.65;;;;;;;9.48;50.70;102145.34;5136764;27;20073;-33
2023/04/30 07:57:25;;;;;;;6.88;2.10;;;;;;;9.53;51.03;102152.16;5122662;27;20135;-33
2023/04/30 07:59:52;;;;;;;12.95;3.85;;;;;;;9.55;51.01;102142.47;5125183;27;20080;-33
2023/04/30 08:02:18;;;;;;;5.50;2.30;;;;;;;9.53;50.41;102156.59;5115889;27;20048;-34
2023/04/30 08:04:43;;;;;;;6.95;2.20;;;;;;;9.51;50.59;102148.75;5109271;27;20055;-34
2023/04/30 08:07:09;;;;;;;8.55;2.38;;;;;;;9.51;50.27;102147.88;5120371;27;20512;-36
2023/04/30 08:09:38;;;;;;;4.28;2.08;;;;;;;9.53;50.82;102159.22;5131097;27;20124;-40
2023/04/30 08:12:04;;;;;;;4.78;1.80;;;;;;;9.66;50.84;102150.03;5111636;27;20039;-37
2023/04/30 08:14:30;;;;;;;8.63;2.47;;;;;;;9.73;50.35;102146.31;5132692;27;20031;-40
2023/04/30 08:16:57;;;;;;;7.47;2.10;;;;;;;9.83;50.04;102154.75;5127699;27;20061;-37
2023/04/30 08:19:22;;;;;;;11.80;2.83;;;;;;;9.91;49.73;102167.66;5129557;27;20050;-34
2023/04/30 08:21:50;;;;;;;6.93;2.30;;;;;;;9.90;49.63;102150.19;5107144;27;20043;-33
2023/04/30 08:24:15;;;;;;;10.88;2.38;;;;;;;9.97;49.44;102146.44;5128375;27;20459;-33
2023/04/30 08:26:41;;;;;;;5.90;2.05;;;;;;;9.99;49.18;102152.50;5120487;27;20706;-36
2023/04/30 08:29:07;;;;;;;5.82;2.70;;;;;;;10.04;49.45;102158.47;5102902;27;20062;-34
2023/04/30 08:31:33;;;;;;;11.73;3.78;;;;;;;10.14;49.49;102155.53;5116259;27;20039;-36
2023/04/30 08:33:59;;;;;;;6.47;2.40;;;;;;;10.20;49.27;102169.34;5119346;27;20041;-36
2023/04/30 08:36:24;;;;;;;8.13;2.38;;;;;;;10.22;48.91;102156.13;5124144;27;20842;-33
2023/04/30 08:38:50;;;;;;;7.60;2.67;;;;;;;10.27;49.00;102161.25;5129115;27;20068;-33
2023/04/30 08:41:15;;;;;;;9.48;2.90;;;;;;;10.27;49.35;102161.25;5117267;27;20041;-35
2023/04/30 08:43:43;;;;;;;6.63;2.30;;;;;;;10.25;49.49;102157.81;5124726;27;20045;-34
2023/04/30 08:46:15;;;;;;;8.30;2.67;;;;;;;10.28;49.60;102161.19;5115456;27;20025;-34
2023/04/30 08:48:40;;;;;;;7.05;2.90;;;;;;;10.19;49.71;102172.88;5135742;27;20114;-36
2023/04/30 08:51:06;;;;;;;6.68;2.20;;;;;;;10.22;49.53;102171.91;5125249;22;20543;-36
2023/04/30 08:53:39;;;;;;;8.93;2.58;;;;;;;10.20;49.69;102169.34;5076695;28;20047;-38
2023/04/30 08:56:05;;;;;;;12.70;4.30;;;;;;;10.22;49.62;102166.63;5073021;28;20056;-36
2023/04/30 08:58:30;;;;;;;6.28;2.28;;;;;;;10.32;49.58;102165.44;5063536;28;20040;-36
2023/04/30 09:01:01;;;;;;;5.95;1.95;;;;;;;10.39;49.18;102162.63;5050660;28;20128;-37
2023/04/30 09:03:27;;;;;;;17.33;3.05;;;;;;;10.43;49.18;102169.50;5041500;28;20036;-36
2023/04/30 09:05:53;;;;;;;7.75;2.17;;;;;;;10.54;48.97;102163.88;5044377;28;20025;-36
2023/04/30 09:08:41;;;;;;;6.63;2.40;;;;;;;10.62;48.58;102165.31;5047486;28;20028;-36
2023/04/30 09:11:33;;;;;;;9.63;1.90;;;;;;;10.63;47.51;102166.16;5042323;28;20526;-36
2023/04/30 09:14:00;;;;;;;6.27;1.90;;;;;;;10.64;48.74;102166.13;5037293;28;20064;-36
2023/04/30 09:16:31;;;;;;;5.90;1.90;;;;;;;10.65;47.74;102165.22;5042521;28;20029;-36
2023/04/30 09:18:58;;;;;;;8.15;2.63;;;;;;;10.62;48.05;102182.88;5042581;28;20113;-36
2023/04/30 09:21:34;;;;;;;5.65;2.30;;;;;;;10.63;47.77;102169.69;5041784;28;20032;-36
2023/04/30 09:24:02;;;;;;;8.07;2.25;;;;;;;10.63;47.49;102172.31;5045023;28;20024;-37
2023/04/30 09:26:37;;;;;;;10.75;2.92;;;;;;;10.65;47.08;102165.22;5043036;28;20838;-36
2023/04/30 09:29:06;;;;;;;8.38;2.63;;;;;;;10.75;47.72;102176.25;5041405;28;20119;-37
2023/04/30 09:31:36;;;;;;;6.53;2.30;;;;;;;10.78;46.75;102180.59;5041965;28;20040;-38
2023/04/30 09:34:02;;;;;;;10.48;2.58;;;;;;;10.76;47.00;102177.97;5037515;28;20033;-36
2023/04/30 09:36:28;;;;;;;7.82;3.33;;;;;;;10.75;46.95;102178.06;5044263;28;20052;-36
2023/04/30 09:38:54;;;;;;;9.60;2.40;;;;;;;10.81;46.80;102169.94;5026216;28;20056;-36
2023/04/30 09:41:25;;;;;;;8.05;2.17;;;;;;;10.90;46.63;102174.00;5037341;28;20021;-38
2023/04/30 09:43:54;;;;;;;3.60;1.65;;;;;;;10.88;45.89;102179.31;5028700;28;20049;-39
2023/04/30 09:46:21;;;;;;;9.52;2.60;;;;;;;11.00;46.25;102177.16;5028716;28;20072;-36
2023/04/30 09:48:56;;;;;;;9.55;2.25;;;;;;;11.00;45.66;102159.59;5032031;28;20047;-36
2023/04/30 09:51:22;;;;;;;10.63;2.50;;;;;;;11.03;45.93;102179.69;5030640;28;20187;-37
2023/04/30 18:33:37;;;;;;;3.55;1.63;;;;;;;15.85;37.10;102025.47;5106313;28;20057;-37
2023/04/30 18:36:04;;;;;;;7.50;1.80;;;;;;;15.78;37.40;102023.25;5116374;28;20035;-36
2023/04/30 18:38:30;;;;;;;8.10;2.33;;;;;;;15.70;37.50;102024.59;5121475;28;20102;-37
2023/04/30 18:40:56;;;;;;;5.35;2.33;;;;;;;15.64;37.79;102024.09;5111688;28;20039;-36
2023/04/30 18:43:22;;;;;;;7.43;2.42;;;;;;;15.54;38.02;102024.59;5114728;28;20032;-36
2023/04/30 18:45:47;;;;;;;2.72;1.50;;;;;;;15.46;38.27;102021.56;5101668;28;20031;-37
2023/04/30 18:48:16;;;;;;;6.50;1.95;;;;;;;15.35;38.15;102022.19;5115823;27;20038;-35
2023/04/30 18:50:44;;;;;;;5.10;2.67;;;;;;;15.27;38.50;102029.75;5095702;28;20480;-36
2023/04/30 18:53:10;;;;;;;8.10;2.15;;;;;;;15.18;38.67;102025.81;5091604;28;20031;-37
2023/04/30 18:55:35;;;;;;;5.57;2.10;;;;;;;15.13;38.82;102030.50;5089125;28;20120;-38
2023/04/30 18:58:00;;;;;;;5.97;2.28;;;;;;;15.08;39.06;102032.56;5099167;27;20043;-37
2023/04/30 19:00:26;;;;;;;11.80;4.70;;;;;;;15.02;39.31;102032.91;5074373;28;20043;-36
2023/04/30 19:02:51;;;;;;;10.55;4.05;;;;;;;14.94;39.45;102036.84;5105559;27;20027;-37
2023/04/30 19:05:17;;;;;;;11.55;3.85;;;;;;;14.89;39.78;102036.25;5104453;27;20032;-38
2023/04/30 19:07:45;;;;;;;7.90;2.70;;;;;;;14.86;40.05;102039.06;5101192;27;20096;-37
2023/04/30 19:10:11;;;;;;;18.35;8.55;;;;;;;14.82;40.20;102045.47;5056162;28;20035;-37
2023/04/30 19:12:36;;;;;;;8.80;4.03;;;;;;;14.75;40.20;102041.44;5100993;28;20426;-37
2023/04/30 19:15:02;;;;;;;10.23;2.88;;;;;;;14.71;40.44;102045.22;5080795;28;20107;-37
2023/04/30 19:17:27;;;;;;;6.20;3.78;;;;;;;14.66;40.36;102047.22;5081662;28;20032;-37
2023/04/30 19:19:56;;;;;;;8.23;3.00;;;;;;;14.60;40.50;102040.47;5088665;28;20072;-37
2023/04/30 19:22:22;;;;;;;6.28;2.83;;;;;;;14.51;40.70;102041.81;5074021;28;20039;-35
2023/04/30 19:24:53;;;;;;;7.88;2.88;;;;;;;14.46;40.66;102047.34;5080664;28;20039;-35
2023/04/30 19:27:18;;;;;;;9.75;3.55;;;;;;;14.35;40.97;102054.16;5100171;28;20059;-36
2023/04/30 19:29:45;;;;;;;7.35;3.10;;;;;;;14.26;41.30;102053.72;5098851;27;20146;-36
2023/04/30 19:32:10;;;;;;;8.68;4.32;;;;;;;14.24;41.08;102052.06;5098070;28;20122;-35
2023/04/30 19:34:36;;;;;;;7.57;3.85;;;;;;;14.18;41.28;102054.13;5102065;28;20396;-35
2023/04/30 19:37:02;;;;;;;7.22;3.80;;;;;;;14.17;41.21;102048.88;5100393;28;20089;-36
2023/04/30 19:39:30;;;;;;;10.82;4.18;;;;;;;14.10;41.72;102045.69;5101801;28;20081;-36
2023/04/30 19:41:56;;;;;;;7.55;3.30;;;;;;;14.03;41.72;102050.44;5101079;28;21270;-35
2023/04/30 19:44:21;;;;;;;6.85;4.05;;;;;;;13.95;42.04;102051.78;5099665;28;20035;-36
2023/04/30 19:46:47;;;;;;;10.13;4.95;;;;;;;13.90;42.11;102052.03;5080058;28;20086;-35
2023/04/30 19:49:12;;;;;;;11.43;3.80;;;;;;;13.85;42.26;102054.03;5080591;28;20077;-35
2023/04/30 19:51:38;;;;;;;12.23;4.05;;;;;;;13.81;42.36;102057.78;5100758;28;20031;-36
2023/04/30 19:54:12;;;;;;;12.15;3.70;;;;;;;13.76;42.49;102065.97;5103175;28;20544;-36
2023/04/30 19:56:40;;;;;;;12.15;4.15;;;;;;;13.71;42.58;102060.88;5071689;28;20027;-36
2023/04/30 19:59:06;;;;;;;12.65;4.65;;;;;;;13.69;42.69;102062.75;5097592;28;20030;-35
2023/04/30 20:01:32;;;;;;;10.20;3.50;;;;;;;13.65;42.70;102069.13;5082295;28;20085;-36
2023/04/30 20:04:02;;;;;;;9.15;3.75;;;;;;;13.60;42.98;102071.16;5089827;27;20031;-35
2023/04/30 20:06:28;;;;;;;13.23;3.70;;;;;;;13.52;43.00;102065.38;5093884;28;20036;-36
2023/04/30 20:08:53;;;;;;;8.52;3.63;;;;;;;13.48;43.31;102066.47;5092891;28;20680;-36
2023/04/30 20:11:22;;;;;;;10.70;3.70;;;;;;;13.45;43.36;102066.59;5089951;27;20031;-35
2023/04/30 20:13:47;;;;;;;10.32;4.18;;;;;;;13.40;43.27;102065.03;5076895;28;20028;-35